sensor_id;sensor_type;location;lat;lon;timestamp;P1;durP1;ratioP1;P2;durP2;ratioP2
41887;SDS011;63122;52.424;13.458;2023-07-20T00:00:24;6.00;;;3.28;;
41887;SDS011;63122;52.424;13.458;2023-07-20T00:02:40;6.03;;;3.10;;
41887;SDS011;63122;52.424;13.458;2023-07-20T00:04:36;11.82;;;3.58;;
41887;SDS011;63122;52.424;13.458;2023-07-20T00:06:31;4.85;;;3.17;;
41887;SDS011;63122;52.424;13.458;2023-07-20T00:08:27;5.30;;;3.03;;
41887;SDS011;63122;52.424;13.458;2023-07-20T00:10:22;7.68;;;2.97;;
41887;SDS011;63122;52.424;13.458;2023-07-20T00:12:20;7.78;;;3.08;;
41887;SDS011;63122;52.424;13.458;2023-07-20T00:14:15;5.10;;;3.53;;
41887;SDS011;63122;52.424;13.458;2023-07-20T00:16:07;4.70;;;3.13;;
41887;SDS011;63122;52.424;13.458;2023-07-20T00:18:03;5.38;;;3.10;;
41887;SDS011;63122;52.424;13.458;2023-07-20T00:19:58;10.10;;;3.63;;
41887;SDS011;63122;52.424;13.458;2023-07-20T00:21:51;8.90;;;3.30;;
41887;SDS011;63122;52.424;13.458;2023-07-20T00:23:47;9.93;;;3.00;;
41887;SDS011;63122;52.424;13.458;2023-07-20T00:25:42;6.78;;;3.70;;
41887;SDS011;63122;52.424;13.458;2023-07-20T00:27:39;6.72;;;3.20;;
41887;SDS011;63122;52.424;13.458;2023-07-20T00:29:35;5.60;;;3.03;;
41887;SDS011;63122;52.424;13.458;2023-07-20T00:31:30;7.35;;;3.70;;
41887;SDS011;63122;52.424;13.458;2023-07-20T00:33:23;5.25;;;2.95;;
41887;SDS011;63122;52.424;13.458;2023-07-20T00:35:18;4.75;;;3.22;;
41887;SDS011;63122;52.424;13.458;2023-07-20T00:37:13;6.72;;;3.30;;
41887;SDS011;63122;52.424;13.458;2023-07-20T00:39:09;4.22;;;3.42;;
41887;SDS011;63122;52.424;13.458;2023-07-20T00:41:04;6.00;;;3.35;;
41887;SDS011;63122;52.424;13.458;2023-07-20T00:43:02;8.07;;;3.42;;
41887;SDS011;63122;52.424;13.458;2023-07-20T00:44:58;5.32;;;3.15;;
41887;SDS011;63122;52.424;13.458;2023-07-20T00:46:53;5.20;;;3.60;;
41887;SDS011;63122;52.424;13.458;2023-07-20T00:48:48;7.50;;;3.70;;
41887;SDS011;63122;52.424;13.458;2023-07-20T00:50:41;4.47;;;3.38;;
41887;SDS011;63122;52.424;13.458;2023-07-20T00:52:37;10.60;;;3.63;;
41887;SDS011;63122;52.424;13.458;2023-07-20T00:54:34;6.20;;;3.78;;
41887;SDS011;63122;52.424;13.458;2023-07-20T00:56:29;5.93;;;3.58;;
41887;SDS011;63122;52.424;13.458;2023-07-20T00:58:24;4.45;;;3.40;;
41887;SDS011;63122;52.424;13.458;2023-07-20T01:00:20;5.07;;;3.47;;
41887;SDS011;63122;52.424;13.458;2023-07-20T01:02:12;6.38;;;3.50;;
41887;SDS011;63122;52.424;13.458;2023-07-20T01:04:08;17.20;;;3.75;;
41887;SDS011;63122;52.424;13.458;2023-07-20T01:06:02;7.65;;;3.63;;
41887;SDS011;63122;52.424;13.458;2023-07-20T01:08:07;7.30;;;3.20;;
41887;SDS011;63122;52.424;13.458;2023-07-20T01:10:12;10.00;;;3.75;;
41887;SDS011;63122;52.424;13.458;2023-07-20T01:12:13;5.93;;;3.58;;
41887;SDS011;63122;52.424;13.458;2023-07-20T01:14:16;6.20;;;3.95;;
41887;SDS011;63122;52.424;13.458;2023-07-20T01:16:09;5.80;;;4.00;;
41887;SDS011;63122;52.424;13.458;2023-07-20T01:18:04;7.57;;;4.10;;
41887;SDS011;63122;52.424;13.458;2023-07-20T01:20:00;6.60;;;3.80;;
41887;SDS011;63122;52.424;13.458;2023-07-20T01:21:57;6.18;;;3.80;;
41887;SDS011;63122;52.424;13.458;2023-07-20T01:24:17;5.70;;;4.30;;
41887;SDS011;63122;52.424;13.458;2023-07-20T01:26:33;5.03;;;3.97;;
41887;SDS011;63122;52.424;13.458;2023-07-20T01:28:48;6.13;;;3.80;;
41887;SDS011;63122;52.424;13.458;2023-07-20T01:31:11;6.47;;;4.30;;
41887;SDS011;63122;52.424;13.458;2023-07-20T01:33:18;6.50;;;4.18;;
41887;SDS011;63122;52.424;13.458;2023-07-20T01:35:13;9.48;;;4.55;;
41887;SDS011;63122;52.424;13.458;2023-07-20T01:37:08;9.73;;;4.35;;
41887;SDS011;63122;52.424;13.458;2023-07-20T01:39:06;6.90;;;4.40;;
41887;SDS011;63122;52.424;13.458;2023-07-20T01:41:03;5.43;;;4.30;;
41887;SDS011;63122;52.424;13.458;2023-07-20T01:42:59;10.13;;;4.35;;
41887;SDS011;63122;52.424;13.458;2023-07-20T01:44:55;6.95;;;3.92;;
41887;SDS011;63122;52.424;13.458;2023-07-20T01:46:53;7.63;;;4.28;;
41887;SDS011;63122;52.424;13.458;2023-07-20T01:48:48;5.22;;;4.40;;
41887;SDS011;63122;52.424;13.458;2023-07-20T01:50:42;6.10;;;4.15;;
41887;SDS011;63122;52.424;13.458;2023-07-20T01:52:38;5.28;;;4.00;;
41887;SDS011;63122;52.424;13.458;2023-07-20T01:54:33;7.18;;;4.18;;
41887;SDS011;63122;52.424;13.458;2023-07-20T01:56:26;9.82;;;4.30;;
41887;SDS011;63122;52.424;13.458;2023-07-20T01:58:21;6.75;;;4.53;;
41887;SDS011;63122;52.424;13.458;2023-07-20T02:00:17;7.28;;;4.32;;
41887;SDS011;63122;52.424;13.458;2023-07-20T02:02:15;5.80;;;4.03;;
41887;SDS011;63122;52.424;13.458;2023-07-20T02:04:11;4.90;;;3.95;;
41887;SDS011;63122;52.424;13.458;2023-07-20T02:06:06;9.48;;;4.20;;
41887;SDS011;63122;52.424;13.458;2023-07-20T02:08:03;7.25;;;4.30;;
41887;SDS011;63122;52.424;13.458;2023-07-20T02:09:56;5.45;;;4.32;;
41887;SDS011;63122;52.424;13.458;2023-07-20T02:11:51;8.40;;;3.97;;
41887;SDS011;63122;52.424;13.458;2023-07-20T02:13:47;5.70;;;4.00;;
41887;SDS011;63122;52.424;13.458;2023-07-20T02:15:42;9.07;;;3.95;;
41887;SDS011;63122;52.424;13.458;2023-07-20T02:17:42;6.40;;;4.07;;
41887;SDS011;63122;52.424;13.458;2023-07-20T02:19:34;9.63;;;4.07;;
41887;SDS011;63122;52.424;13.458;2023-07-20T02:21:30;11.10;;;4.32;;
41887;SDS011;63122;52.424;13.458;2023-07-20T02:23:25;5.13;;;4.32;;
41887;SDS011;63122;52.424;13.458;2023-07-20T02:25:21;10.68;;;3.90;;
41887;SDS011;63122;52.424;13.458;2023-07-20T02:27:16;7.32;;;4.18;;
41887;SDS011;63122;52.424;13.458;2023-07-20T02:29:09;6.75;;;4.30;;
41887;SDS011;63122;52.424;13.458;2023-07-20T02:31:05;7.18;;;3.97;;
41887;SDS011;63122;52.424;13.458;2023-07-20T02:33:03;7.65;;;4.35;;
41887;SDS011;63122;52.424;13.458;2023-07-20T02:34:58;4.68;;;3.88;;
41887;SDS011;63122;52.424;13.458;2023-07-20T02:36:55;7.40;;;4.20;;
41887;SDS011;63122;52.424;13.458;2023-07-20T02:38:53;6.22;;;4.35;;
41887;SDS011;63122;52.424;13.458;2023-07-20T02:40:48;10.38;;;4.35;;
41887;SDS011;63122;52.424;13.458;2023-07-20T02:42:43;5.57;;;4.40;;
41887;SDS011;63122;52.424;13.458;2023-07-20T02:44:38;4.93;;;3.80;;
41887;SDS011;63122;52.424;13.458;2023-07-20T02:46:31;5.85;;;4.55;;
41887;SDS011;63122;52.424;13.458;2023-07-20T02:48:30;5.05;;;4.22;;
41887;SDS011;63122;52.424;13.458;2023-07-20T02:50:25;6.72;;;4.22;;
41887;SDS011;63122;52.424;13.458;2023-07-20T02:52:18;11.05;;;4.80;;
41887;SDS011;63122;52.424;13.458;2023-07-20T02:54:14;6.50;;;4.10;;
41887;SDS011;63122;52.424;13.458;2023-07-20T02:56:09;6.93;;;4.93;;
41887;SDS011;63122;52.424;13.458;2023-07-20T02:58:05;9.75;;;4.75;;
41887;SDS011;63122;52.424;13.458;2023-07-20T03:00:00;10.75;;;4.45;;
41887;SDS011;63122;52.424;13.458;2023-07-20T03:01:53;7.10;;;4.28;;
41887;SDS011;63122;52.424;13.458;2023-07-20T03:03:52;6.75;;;4.75;;
41887;SDS011;63122;52.424;13.458;2023-07-20T03:05:49;8.15;;;4.97;;
41887;SDS011;63122;52.424;13.458;2023-07-20T03:07:46;12.10;;;5.22;;
41887;SDS011;63122;52.424;13.458;2023-07-20T03:09:44;9.48;;;5.00;;
41887;SDS011;63122;52.424;13.458;2023-07-20T03:11:49;8.10;;;5.88;;
41887;SDS011;63122;52.424;13.458;2023-07-20T03:13:47;9.07;;;6.18;;
41887;SDS011;63122;52.424;13.458;2023-07-20T03:15:42;15.25;;;8.27;;
41887;SDS011;63122;52.424;13.458;2023-07-20T03:17:38;11.38;;;6.95;;
41887;SDS011;63122;52.424;13.458;2023-07-20T03:19:33;12.65;;;6.88;;
41887;SDS011;63122;52.424;13.458;2023-07-20T03:21:28;8.30;;;6.82;;
41887;SDS011;63122;52.424;13.458;2023-07-20T03:23:24;10.63;;;8.00;;
41887;SDS011;63122;52.424;13.458;2023-07-20T03:25:19;9.73;;;7.47;;
41887;SDS011;63122;52.424;13.458;2023-07-20T03:27:17;11.00;;;7.28;;
41887;SDS011;63122;52.424;13.458;2023-07-20T03:29:12;9.23;;;7.50;;
41887;SDS011;63122;52.424;13.458;2023-07-20T03:31:08;8.20;;;7.40;;
41887;SDS011;63122;52.424;13.458;2023-07-20T03:33:03;9.90;;;7.35;;
41887;SDS011;63122;52.424;13.458;2023-07-20T03:35:01;10.05;;;7.70;;
41887;SDS011;63122;52.424;13.458;2023-07-20T03:36:54;11.63;;;7.97;;
41887;SDS011;63122;52.424;13.458;2023-07-20T03:38:49;11.65;;;8.48;;
41887;SDS011;63122;52.424;13.458;2023-07-20T03:40:51;11.43;;;7.45;;
41887;SDS011;63122;52.424;13.458;2023-07-20T03:42:46;11.63;;;7.57;;
41887;SDS011;63122;52.424;13.458;2023-07-20T03:44:44;11.38;;;8.00;;
41887;SDS011;63122;52.424;13.458;2023-07-20T03:46:39;11.95;;;8.40;;
41887;SDS011;63122;52.424;13.458;2023-07-20T03:48:35;15.95;;;8.23;;
41887;SDS011;63122;52.424;13.458;2023-07-20T03:50:50;10.48;;;8.20;;
41887;SDS011;63122;52.424;13.458;2023-07-20T03:52:55;16.23;;;8.80;;
41887;SDS011;63122;52.424;13.458;2023-07-20T03:54:50;12.40;;;8.77;;
41887;SDS011;63122;52.424;13.458;2023-07-20T03:56:46;13.35;;;8.90;;
41887;SDS011;63122;52.424;13.458;2023-07-20T03:58:41;16.05;;;8.65;;
41887;SDS011;63122;52.424;13.458;2023-07-20T04:00:34;10.20;;;8.00;;
41887;SDS011;63122;52.424;13.458;2023-07-20T04:02:29;13.25;;;8.68;;
41887;SDS011;63122;52.424;13.458;2023-07-20T04:04:22;10.93;;;8.80;;
41887;SDS011;63122;52.424;13.458;2023-07-20T04:06:20;11.00;;;9.23;;
41887;SDS011;63122;52.424;13.458;2023-07-20T04:08:13;9.88;;;8.52;;
41887;SDS011;63122;52.424;13.458;2023-07-20T04:10:09;12.02;;;8.98;;
41887;SDS011;63122;52.424;13.458;2023-07-20T04:12:05;15.43;;;10.07;;
41887;SDS011;63122;52.424;13.458;2023-07-20T04:14:02;14.32;;;10.18;;
41887;SDS011;63122;52.424;13.458;2023-07-20T04:15:57;12.45;;;9.27;;
41887;SDS011;63122;52.424;13.458;2023-07-20T04:17:53;10.20;;;8.75;;
41887;SDS011;63122;52.424;13.458;2023-07-20T04:19:46;16.80;;;8.95;;
41887;SDS011;63122;52.424;13.458;2023-07-20T04:21:44;12.00;;;9.15;;
41887;SDS011;63122;52.424;13.458;2023-07-20T04:23:39;11.77;;;8.80;;
41887;SDS011;63122;52.424;13.458;2023-07-20T04:25:35;15.60;;;8.90;;
41887;SDS011;63122;52.424;13.458;2023-07-20T04:27:34;14.38;;;9.10;;
41887;SDS011;63122;52.424;13.458;2023-07-20T04:29:27;11.93;;;9.40;;
41887;SDS011;63122;52.424;13.458;2023-07-20T04:31:22;14.38;;;8.55;;
41887;SDS011;63122;52.424;13.458;2023-07-20T04:33:18;9.15;;;7.95;;
41887;SDS011;63122;52.424;13.458;2023-07-20T04:35:16;11.38;;;8.27;;
41887;SDS011;63122;52.424;13.458;2023-07-20T04:37:13;11.68;;;8.23;;
41887;SDS011;63122;52.424;13.458;2023-07-20T04:39:09;11.75;;;8.57;;
41887;SDS011;63122;52.424;13.458;2023-07-20T04:41:21;13.68;;;8.85;;
41887;SDS011;63122;52.424;13.458;2023-07-20T04:43:18;11.52;;;8.02;;
41887;SDS011;63122;52.424;13.458;2023-07-20T04:45:13;13.13;;;8.95;;
41887;SDS011;63122;52.424;13.458;2023-07-20T04:47:11;16.40;;;8.98;;
41887;SDS011;63122;52.424;13.458;2023-07-20T04:49:06;17.75;;;10.13;;
41887;SDS011;63122;52.424;13.458;2023-07-20T04:51:02;12.82;;;8.88;;
41887;SDS011;63122;52.424;13.458;2023-07-20T04:52:58;12.45;;;9.00;;
41887;SDS011;63122;52.424;13.458;2023-07-20T04:54:54;13.20;;;8.15;;
41887;SDS011;63122;52.424;13.458;2023-07-20T04:56:49;10.25;;;8.82;;
41887;SDS011;63122;52.424;13.458;2023-07-20T04:58:45;11.93;;;8.27;;
41887;SDS011;63122;52.424;13.458;2023-07-20T05:00:41;9.82;;;8.00;;
41887;SDS011;63122;52.424;13.458;2023-07-20T05:02:36;12.35;;;8.13;;
41887;SDS011;63122;52.424;13.458;2023-07-20T05:04:32;10.60;;;7.93;;
41887;SDS011;63122;52.424;13.458;2023-07-20T05:06:30;12.02;;;8.10;;
41887;SDS011;63122;52.424;13.458;2023-07-20T05:08:28;13.18;;;8.23;;
41887;SDS011;63122;52.424;13.458;2023-07-20T05:10:24;12.02;;;8.20;;
41887;SDS011;63122;52.424;13.458;2023-07-20T05:12:16;13.05;;;7.72;;
41887;SDS011;63122;52.424;13.458;2023-07-20T05:14:13;14.75;;;8.32;;
41887;SDS011;63122;52.424;13.458;2023-07-20T05:16:08;16.88;;;8.55;;
41887;SDS011;63122;52.424;13.458;2023-07-20T05:18:04;11.10;;;8.15;;
41887;SDS011;63122;52.424;13.458;2023-07-20T05:19:57;9.18;;;7.82;;
41887;SDS011;63122;52.424;13.458;2023-07-20T05:21:52;8.95;;;7.20;;
41887;SDS011;63122;52.424;13.458;2023-07-20T05:23:51;9.35;;;7.93;;
41887;SDS011;63122;52.424;13.458;2023-07-20T05:25:46;13.27;;;7.55;;
41887;SDS011;63122;52.424;13.458;2023-07-20T05:27:41;9.82;;;7.10;;
41887;SDS011;63122;52.424;13.458;2023-07-20T05:29:36;8.85;;;7.80;;
41887;SDS011;63122;52.424;13.458;2023-07-20T05:31:32;14.05;;;7.80;;
41887;SDS011;63122;52.424;13.458;2023-07-20T05:33:27;12.95;;;8.00;;
41887;SDS011;63122;52.424;13.458;2023-07-20T05:35:22;15.07;;;7.93;;
41887;SDS011;63122;52.424;13.458;2023-07-20T05:37:18;8.65;;;7.07;;
41887;SDS011;63122;52.424;13.458;2023-07-20T05:39:13;16.63;;;7.25;;
41887;SDS011;63122;52.424;13.458;2023-07-20T05:41:09;12.80;;;7.82;;
41887;SDS011;63122;52.424;13.458;2023-07-20T05:43:04;11.00;;;8.23;;
41887;SDS011;63122;52.424;13.458;2023-07-20T05:44:57;9.63;;;7.57;;
41887;SDS011;63122;52.424;13.458;2023-07-20T05:46:52;10.73;;;7.07;;
41887;SDS011;63122;52.424;13.458;2023-07-20T05:48:49;17.95;;;12.50;;
41887;SDS011;63122;52.424;13.458;2023-07-20T05:50:44;10.93;;;7.70;;
41887;SDS011;63122;52.424;13.458;2023-07-20T05:52:40;14.38;;;7.50;;
41887;SDS011;63122;52.424;13.458;2023-07-20T05:54:38;10.80;;;6.43;;
41887;SDS011;63122;52.424;13.458;2023-07-20T05:56:33;8.57;;;6.80;;
41887;SDS011;63122;52.424;13.458;2023-07-20T05:58:26;9.55;;;6.30;;
41887;SDS011;63122;52.424;13.458;2023-07-20T06:00:21;8.85;;;7.20;;
41887;SDS011;63122;52.424;13.458;2023-07-20T06:02:18;11.45;;;7.00;;
41887;SDS011;63122;52.424;13.458;2023-07-20T06:04:13;8.13;;;6.55;;
41887;SDS011;63122;52.424;13.458;2023-07-20T06:06:09;12.30;;;6.57;;
41887;SDS011;63122;52.424;13.458;2023-07-20T06:08:04;14.45;;;7.10;;
41887;SDS011;63122;52.424;13.458;2023-07-20T06:10:00;8.90;;;6.50;;
41887;SDS011;63122;52.424;13.458;2023-07-20T06:11:55;8.10;;;6.72;;
41887;SDS011;63122;52.424;13.458;2023-07-20T06:13:51;10.30;;;6.70;;
41887;SDS011;63122;52.424;13.458;2023-07-20T06:15:46;8.82;;;5.78;;
41887;SDS011;63122;52.424;13.458;2023-07-20T06:17:41;7.72;;;5.80;;
41887;SDS011;63122;52.424;13.458;2023-07-20T06:19:36;12.80;;;5.78;;
41887;SDS011;63122;52.424;13.458;2023-07-20T06:21:31;9.07;;;5.75;;
41887;SDS011;63122;52.424;13.458;2023-07-20T06:23:27;8.05;;;6.35;;
41887;SDS011;63122;52.424;13.458;2023-07-20T06:25:24;7.53;;;5.45;;
41887;SDS011;63122;52.424;13.458;2023-07-20T06:27:20;11.57;;;5.97;;
41887;SDS011;63122;52.424;13.458;2023-07-20T06:29:15;7.68;;;5.82;;
41887;SDS011;63122;52.424;13.458;2023-07-20T06:31:11;6.80;;;5.10;;
41887;SDS011;63122;52.424;13.458;2023-07-20T06:33:06;8.63;;;5.35;;
41887;SDS011;63122;52.424;13.458;2023-07-20T06:35:01;10.85;;;5.68;;
41887;SDS011;63122;52.424;13.458;2023-07-20T06:36:57;8.82;;;5.82;;
41887;SDS011;63122;52.424;13.458;2023-07-20T06:38:53;6.40;;;4.93;;
41887;SDS011;63122;52.424;13.458;2023-07-20T06:40:54;6.68;;;5.55;;
41887;SDS011;63122;52.424;13.458;2023-07-20T06:43:09;7.22;;;5.40;;
41887;SDS011;63122;52.424;13.458;2023-07-20T06:45:07;7.97;;;6.13;;
41887;SDS011;63122;52.424;13.458;2023-07-20T06:47:01;10.20;;;5.82;;
41887;SDS011;63122;52.424;13.458;2023-07-20T06:48:57;10.35;;;6.05;;
41887;SDS011;63122;52.424;13.458;2023-07-20T06:50:55;9.65;;;6.00;;
41887;SDS011;63122;52.424;13.458;2023-07-20T06:52:51;8.23;;;5.25;;
41887;SDS011;63122;52.424;13.458;2023-07-20T06:54:49;12.73;;;5.63;;
41887;SDS011;63122;52.424;13.458;2023-07-20T06:56:47;9.32;;;5.38;;
41887;SDS011;63122;52.424;13.458;2023-07-20T06:58:45;8.05;;;4.65;;
41887;SDS011;63122;52.424;13.458;2023-07-20T07:00:38;6.50;;;4.90;;
41887;SDS011;63122;52.424;13.458;2023-07-20T07:02:34;11.27;;;4.75;;
41887;SDS011;63122;52.424;13.458;2023-07-20T07:04:29;12.35;;;4.55;;
41887;SDS011;63122;52.424;13.458;2023-07-20T07:06:25;5.47;;;4.05;;
41887;SDS011;63122;52.424;13.458;2023-07-20T07:08:21;5.25;;;4.40;;
41887;SDS011;63122;52.424;13.458;2023-07-20T07:10:16;7.90;;;4.05;;
41887;SDS011;63122;52.424;13.458;2023-07-20T07:12:12;8.45;;;3.92;;
41887;SDS011;63122;52.424;13.458;2023-07-20T07:14:08;9.63;;;3.58;;
41887;SDS011;63122;52.424;13.458;2023-07-20T07:16:04;7.45;;;3.00;;
41887;SDS011;63122;52.424;13.458;2023-07-20T07:18:00;8.00;;;3.08;;
41887;SDS011;63122;52.424;13.458;2023-07-20T07:19:54;7.25;;;2.60;;
41887;SDS011;63122;52.424;13.458;2023-07-20T07:21:50;5.60;;;2.60;;
41887;SDS011;63122;52.424;13.458;2023-07-20T07:23:51;4.00;;;2.60;;
41887;SDS011;63122;52.424;13.458;2023-07-20T07:25:50;3.55;;;2.65;;
41887;SDS011;63122;52.424;13.458;2023-07-20T07:27:48;8.18;;;2.22;;
41887;SDS011;63122;52.424;13.458;2023-07-20T07:29:44;4.80;;;2.63;;
41887;SDS011;63122;52.424;13.458;2023-07-20T07:31:41;3.55;;;2.53;;
41887;SDS011;63122;52.424;13.458;2023-07-20T07:33:34;5.82;;;2.47;;
41887;SDS011;63122;52.424;13.458;2023-07-20T07:35:30;2.42;;;2.00;;
41887;SDS011;63122;52.424;13.458;2023-07-20T07:37:25;3.78;;;2.33;;
41887;SDS011;63122;52.424;13.458;2023-07-20T07:39:27;3.58;;;1.88;;
41887;SDS011;63122;52.424;13.458;2023-07-20T07:41:27;5.43;;;1.95;;
41887;SDS011;63122;52.424;13.458;2023-07-20T07:43:22;3.30;;;1.60;;
41887;SDS011;63122;52.424;13.458;2023-07-20T07:45:18;2.25;;;1.40;;
41887;SDS011;63122;52.424;13.458;2023-07-20T07:47:11;3.15;;;1.08;;
41887;SDS011;63122;52.424;13.458;2023-07-20T07:49:07;2.35;;;1.30;;
41887;SDS011;63122;52.424;13.458;2023-07-20T07:51:03;4.30;;;1.30;;
41887;SDS011;63122;52.424;13.458;2023-07-20T07:52:58;3.13;;;1.30;;
41887;SDS011;63122;52.424;13.458;2023-07-20T07:54:55;6.28;;;1.30;;
41887;SDS011;63122;52.424;13.458;2023-07-20T07:56:50;4.53;;;1.30;;
41887;SDS011;63122;52.424;13.458;2023-07-20T07:58:48;5.80;;;3.95;;
41887;SDS011;63122;52.424;13.458;2023-07-20T08:00:44;12.95;;;6.20;;
41887;SDS011;63122;52.424;13.458;2023-07-20T08:02:40;2.28;;;1.10;;
41887;SDS011;63122;52.424;13.458;2023-07-20T08:04:34;3.90;;;0.90;;
41887;SDS011;63122;52.424;13.458;2023-07-20T08:06:31;3.10;;;1.35;;
41887;SDS011;63122;52.424;13.458;2023-07-20T08:08:26;3.70;;;1.17;;
41887;SDS011;63122;52.424;13.458;2023-07-20T08:10:23;2.13;;;1.23;;
41887;SDS011;63122;52.424;13.458;2023-07-20T08:12:17;1.10;;;1.00;;
41887;SDS011;63122;52.424;13.458;2023-07-20T08:14:15;7.00;;;3.05;;
41887;SDS011;63122;52.424;13.458;2023-07-20T08:16:11;5.65;;;1.67;;
41887;SDS011;63122;52.424;13.458;2023-07-20T08:18:06;2.80;;;1.30;;
41887;SDS011;63122;52.424;13.458;2023-07-20T08:20:02;26.73;;;10.00;;
41887;SDS011;63122;52.424;13.458;2023-07-20T08:21:55;5.22;;;1.40;;
41887;SDS011;63122;52.424;13.458;2023-07-20T08:23:51;8.55;;;2.55;;
41887;SDS011;63122;52.424;13.458;2023-07-20T08:25:46;2.60;;;1.38;;
41887;SDS011;63122;52.424;13.458;2023-07-20T08:27:41;10.57;;;4.68;;
41887;SDS011;63122;52.424;13.458;2023-07-20T08:29:41;8.60;;;1.65;;
41887;SDS011;63122;52.424;13.458;2023-07-20T08:31:33;3.97;;;1.23;;
41887;SDS011;63122;52.424;13.458;2023-07-20T08:33:28;2.90;;;1.42;;
41887;SDS011;63122;52.424;13.458;2023-07-20T08:35:25;11.65;;;1.50;;
41887;SDS011;63122;52.424;13.458;2023-07-20T08:37:20;2.72;;;1.20;;
41887;SDS011;63122;52.424;13.458;2023-07-20T08:39:16;1.70;;;1.30;;
41887;SDS011;63122;52.424;13.458;2023-07-20T08:41:14;0.82;;;0.80;;
41887;SDS011;63122;52.424;13.458;2023-07-20T08:43:10;3.97;;;1.52;;
41887;SDS011;63122;52.424;13.458;2023-07-20T08:45:06;3.75;;;1.25;;
41887;SDS011;63122;52.424;13.458;2023-07-20T08:47:04;6.53;;;1.27;;
41887;SDS011;63122;52.424;13.458;2023-07-20T08:49:01;1.83;;;1.00;;
41887;SDS011;63122;52.424;13.458;2023-07-20T08:50:56;2.95;;;1.00;;
41887;SDS011;63122;52.424;13.458;2023-07-20T08:52:53;7.47;;;2.30;;
41887;SDS011;63122;52.424;13.458;2023-07-20T08:54:48;4.85;;;1.13;;
41887;SDS011;63122;52.424;13.458;2023-07-20T08:56:45;1.83;;;0.80;;
41887;SDS011;63122;52.424;13.458;2023-07-20T08:58:41;2.97;;;1.10;;
41887;SDS011;63122;52.424;13.458;2023-07-20T09:00:40;1.10;;;1.00;;
41887;SDS011;63122;52.424;13.458;2023-07-20T09:02:38;5.32;;;1.15;;
41887;SDS011;63122;52.424;13.458;2023-07-20T09:04:35;1.25;;;0.90;;
41887;SDS011;63122;52.424;13.458;2023-07-20T09:06:30;1.00;;;0.85;;
41887;SDS011;63122;52.424;13.458;2023-07-20T09:08:26;1.52;;;0.80;;
41887;SDS011;63122;52.424;13.458;2023-07-20T09:10:22;10.40;;;1.02;;
41887;SDS011;63122;52.424;13.458;2023-07-20T09:12:18;2.47;;;0.90;;
41887;SDS011;63122;52.424;13.458;2023-07-20T09:14:13;1.00;;;0.90;;
41887;SDS011;63122;52.424;13.458;2023-07-20T09:16:11;1.58;;;0.90;;
41887;SDS011;63122;52.424;13.458;2023-07-20T09:18:08;2.00;;;0.80;;
41887;SDS011;63122;52.424;13.458;2023-07-20T09:20:05;1.35;;;1.15;;
41887;SDS011;63122;52.424;13.458;2023-07-20T09:22:02;0.93;;;0.70;;
41887;SDS011;63122;52.424;13.458;2023-07-20T09:24:00;1.10;;;0.77;;
41887;SDS011;63122;52.424;13.458;2023-07-20T09:25:57;0.70;;;0.70;;
41887;SDS011;63122;52.424;13.458;2023-07-20T09:27:52;0.95;;;0.80;;
41887;SDS011;63122;52.424;13.458;2023-07-20T09:29:48;3.95;;;0.80;;
41887;SDS011;63122;52.424;13.458;2023-07-20T09:31:44;0.50;;;0.50;;
41887;SDS011;63122;52.424;13.458;2023-07-20T09:33:54;0.90;;;0.70;;
41887;SDS011;63122;52.424;13.458;2023-07-20T09:35:53;1.23;;;0.70;;
41887;SDS011;63122;52.424;13.458;2023-07-20T09:37:57;1.85;;;0.80;;
41887;SDS011;63122;52.424;13.458;2023-07-20T09:39:57;3.15;;;0.60;;
41887;SDS011;63122;52.424;13.458;2023-07-20T09:41:53;2.10;;;0.90;;
41887;SDS011;63122;52.424;13.458;2023-07-20T09:44:08;5.15;;;0.80;;
41887;SDS011;63122;52.424;13.458;2023-07-20T09:46:07;0.90;;;0.73;;
41887;SDS011;63122;52.424;13.458;2023-07-20T09:48:26;1.60;;;0.60;;
41887;SDS011;63122;52.424;13.458;2023-07-20T09:50:24;1.80;;;0.80;;
41887;SDS011;63122;52.424;13.458;2023-07-20T09:52:19;0.77;;;0.50;;
41887;SDS011;63122;52.424;13.458;2023-07-20T09:54:16;0.75;;;0.63;;
41887;SDS011;63122;52.424;13.458;2023-07-20T09:56:12;1.33;;;0.80;;
41887;SDS011;63122;52.424;13.458;2023-07-20T09:58:11;3.50;;;0.75;;
41887;SDS011;63122;52.424;13.458;2023-07-20T10:00:05;2.60;;;0.50;;
41887;SDS011;63122;52.424;13.458;2023-07-20T10:02:10;2.28;;;0.70;;
41887;SDS011;63122;52.424;13.458;2023-07-20T10:04:16;0.80;;;0.70;;
41887;SDS011;63122;52.424;13.458;2023-07-20T10:06:15;0.93;;;0.68;;
41887;SDS011;63122;52.424;13.458;2023-07-20T10:08:14;1.10;;;0.80;;
41887;SDS011;63122;52.424;13.458;2023-07-20T10:10:17;2.47;;;0.73;;
41887;SDS011;63122;52.424;13.458;2023-07-20T10:12:14;4.70;;;0.80;;
41887;SDS011;63122;52.424;13.458;2023-07-20T10:14:11;4.45;;;1.30;;
41887;SDS011;63122;52.424;13.458;2023-07-20T10:16:11;2.17;;;1.00;;
41887;SDS011;63122;52.424;13.458;2023-07-20T10:18:11;4.03;;;0.90;;
41887;SDS011;63122;52.424;13.458;2023-07-20T10:20:13;1.20;;;0.75;;
41887;SDS011;63122;52.424;13.458;2023-07-20T10:22:10;5.50;;;0.70;;
41887;SDS011;63122;52.424;13.458;2023-07-20T10:24:08;3.22;;;0.75;;
41887;SDS011;63122;52.424;13.458;2023-07-20T10:26:05;1.52;;;0.95;;
41887;SDS011;63122;52.424;13.458;2023-07-20T10:28:01;3.53;;;1.10;;
41887;SDS011;63122;52.424;13.458;2023-07-20T10:29:57;4.50;;;1.10;;
41887;SDS011;63122;52.424;13.458;2023-07-20T10:31:54;1.40;;;1.05;;
41887;SDS011;63122;52.424;13.458;2023-07-20T10:33:48;3.78;;;1.00;;
41887;SDS011;63122;52.424;13.458;2023-07-20T10:35:53;3.33;;;0.98;;
41887;SDS011;63122;52.424;13.458;2023-07-20T10:37:51;1.58;;;0.90;;
41887;SDS011;63122;52.424;13.458;2023-07-20T10:39:45;5.15;;;1.10;;
41887;SDS011;63122;52.424;13.458;2023-07-20T10:41:41;3.80;;;1.17;;
41887;SDS011;63122;52.424;13.458;2023-07-20T10:43:34;2.15;;;1.13;;
41887;SDS011;63122;52.424;13.458;2023-07-20T10:47:46;2.05;;;0.90;;
41887;SDS011;63122;52.424;13.458;2023-07-20T10:51:59;2.17;;;1.00;;
41887;SDS011;63122;52.424;13.458;2023-07-20T10:53:59;1.55;;;0.80;;
41887;SDS011;63122;52.424;13.458;2023-07-20T10:56:05;1.33;;;0.82;;
41887;SDS011;63122;52.424;13.458;2023-07-20T10:58:11;4.88;;;0.88;;
41887;SDS011;63122;52.424;13.458;2023-07-20T11:00:08;2.58;;;1.05;;
41887;SDS011;63122;52.424;13.458;2023-07-20T11:02:06;3.42;;;0.95;;
41887;SDS011;63122;52.424;13.458;2023-07-20T11:04:02;1.55;;;0.80;;
41887;SDS011;63122;52.424;13.458;2023-07-20T11:10:39;2.42;;;1.10;;
41887;SDS011;63122;52.424;13.458;2023-07-20T11:12:35;5.32;;;1.20;;
41887;SDS011;63122;52.424;13.458;2023-07-20T11:14:27;2.53;;;1.13;;
41887;SDS011;63122;52.424;13.458;2023-07-20T11:16:35;3.70;;;0.80;;
41887;SDS011;63122;52.424;13.458;2023-07-20T11:18:33;3.55;;;1.52;;
41887;SDS011;63122;52.424;13.458;2023-07-20T11:20:32;1.52;;;0.85;;
41887;SDS011;63122;52.424;13.458;2023-07-20T11:22:27;4.53;;;1.00;;
41887;SDS011;63122;52.424;13.458;2023-07-20T11:24:27;9.52;;;1.20;;
41887;SDS011;63122;52.424;13.458;2023-07-20T11:26:24;2.85;;;0.85;;
41887;SDS011;63122;52.424;13.458;2023-07-20T11:28:16;2.13;;;0.82;;
41887;SDS011;63122;52.424;13.458;2023-07-20T11:30:15;1.77;;;0.80;;
41887;SDS011;63122;52.424;13.458;2023-07-20T11:32:11;3.92;;;0.93;;
41887;SDS011;63122;52.424;13.458;2023-07-20T11:34:07;3.45;;;0.80;;
41887;SDS011;63122;52.424;13.458;2023-07-20T11:36:03;1.98;;;1.00;;
41887;SDS011;63122;52.424;13.458;2023-07-20T11:38:03;1.58;;;1.13;;
41887;SDS011;63122;52.424;13.458;2023-07-20T11:40:01;1.80;;;0.80;;